Aérodrome :
LOGIN :

S'inscrire | Disclaimer

   EN    FR    IT 

 










Légende :    VFR   VFR Marginal   IFR   IFR Intensif   IFR Très Intensif
Visi : 
Plafond : 
>= 8 km
>= 3000ft
5 à 8 km
1000 à 3000 ft
1500m à 5 km
500 à 1000 ft
800 à 1500m
200 à 500 ft
< 800m
< 200 ft
Symboles :   Orages  Brouillard  Fortes neiges  Fortes précipitations  Vent > 20 kt
SIGMETs :   Divers  Orages  Givrage  Turbulence  Onde Orograph.  Cendres Volcan.







- Altitude de l'aérodrome : 138 ft
- Code IATA : BIO


LEBB - Bilbao

DERNIER METAR :
  • 240000Z AUTO VRB03KT CAVOK 21/04 Q1014

METARs EXPIRÉS :
  • 232330Z AUTO VRB04KT CAVOK 20/05 Q1014
  • 232300Z AUTO 16005KT 120V200 CAVOK 20/06 Q1014
  • 232230Z 16005KT 100V210 CAVOK 20/07 Q1014 NOSIG
  • 232200Z 15007KT 110V170 CAVOK 20/07 Q1014 NOSIG
  • 232130Z 16004KT 110V230 9999 FEW040 22/06 Q1014 NOSIG

TAF TAF LEBB
Valide du 24 à 00h jusqu'au 25 à 00h UTC


232300Z 2400/2424 22009KT 9999 SCT040 TX21/2414Z TN12/2406Z
TEMPO 2400/2409 22015G25KT
BECMG 2410/2412 31010KT
TEMPO 2415/2422 VRB05KT
PROB30
TEMPO 2400/2418 RA
TEMPO 2418/2424 3000 RA SHRA BKN014 SCT025TCU
Pas de NOTAMs connus pour ce terrain.



MET'MAP, la Météo Aéronautique d'un coup d'oeil ! - Copyright ORBIFLY Décembre 2007 - Disclaimer

ORBIFLY MET'MAP TEAM :

Programmation & Développement : Alexandra Zaïnal
Conception & Développement : Baudouin d'Aumeries
Co-Programmation & Développement : Marc-Olivier Méhu
Soutien technique & logistique : Manuel Goepfert

Contact : metmap@orbifly.com




SOURCES & CREDITS :

   NOAA